sensor_id;sensor_type;location;lat;lon;timestamp;pressure;altitude;pressure_sealevel;temperature;humidity
9774;BME280;4926;42.670;23.316;2023-07-30T00:00:36;94382.72;;;23.54;61.13
9774;BME280;4926;42.670;23.316;2023-07-30T00:03:03;94373.44;;;23.55;61.10
9774;BME280;4926;42.670;23.316;2023-07-30T00:05:31;94371.84;;;23.54;60.92
9774;BME280;4926;42.670;23.316;2023-07-30T00:08:01;94382.78;;;23.61;60.52
9774;BME280;4926;42.670;23.316;2023-07-30T00:10:27;94368.88;;;23.66;60.57
9774;BME280;4926;42.670;23.316;2023-07-30T00:12:54;94366.56;;;23.68;60.44
9774;BME280;4926;42.670;23.316;2023-07-30T00:15:21;94368.13;;;23.69;60.16
9774;BME280;4926;42.670;23.316;2023-07-30T00:17:48;94364.59;;;23.65;60.49
9774;BME280;4926;42.670;23.316;2023-07-30T00:20:15;94363.44;;;23.66;60.60
9774;BME280;4926;42.670;23.316;2023-07-30T00:22:43;94356.41;;;23.61;60.53
9774;BME280;4926;42.670;23.316;2023-07-30T00:25:09;94364.19;;;23.63;60.50
9774;BME280;4926;42.670;23.316;2023-07-30T00:27:36;94366.16;;;23.66;60.66
9774;BME280;4926;42.670;23.316;2023-07-30T00:30:06;94361.06;;;23.61;60.73
9774;BME280;4926;42.670;23.316;2023-07-30T00:32:33;94355.69;;;23.68;60.53
9774;BME280;4926;42.670;23.316;2023-07-30T00:35:00;94359.16;;;23.65;60.43
9774;BME280;4926;42.670;23.316;2023-07-30T00:37:29;94354.47;;;23.62;60.47
9774;BME280;4926;42.670;23.316;2023-07-30T00:39:57;94349.34;;;23.57;60.60
9774;BME280;4926;42.670;23.316;2023-07-30T00:42:24;94355.31;;;23.33;62.35
9774;BME280;4926;42.670;23.316;2023-07-30T00:44:51;94350.13;;;23.20;62.73
9774;BME280;4926;42.670;23.316;2023-07-30T00:47:18;94361.81;;;23.24;62.91
9774;BME280;4926;42.670;23.316;2023-07-30T00:49:45;94355.03;;;23.11;63.49
9774;BME280;4926;42.670;23.316;2023-07-30T00:52:12;94366.81;;;23.22;63.35
9774;BME280;4926;42.670;23.316;2023-07-30T00:54:39;94370.69;;;23.21;63.13
9774;BME280;4926;42.670;23.316;2023-07-30T00:57:09;94360.00;;;23.06;63.74
9774;BME280;4926;42.670;23.316;2023-07-30T00:59:36;94364.66;;;23.02;63.76
9774;BME280;4926;42.670;23.316;2023-07-30T01:02:04;94366.81;;;22.89;63.72
9774;BME280;4926;42.670;23.316;2023-07-30T01:04:32;94369.28;;;22.46;66.34
9774;BME280;4926;42.670;23.316;2023-07-30T01:06:58;94371.50;;;22.40;67.43
9774;BME280;4926;42.670;23.316;2023-07-30T01:09:25;94372.84;;;22.27;68.72
9774;BME280;4926;42.670;23.316;2023-07-30T01:11:56;94374.97;;;22.37;68.51
9774;BME280;4926;42.670;23.316;2023-07-30T01:14:26;94369.44;;;22.30;67.91
9774;BME280;4926;42.670;23.316;2023-07-30T01:16:52;94381.72;;;22.24;67.75
9774;BME280;4926;42.670;23.316;2023-07-30T01:19:19;94382.47;;;22.21;66.82
9774;BME280;4926;42.670;23.316;2023-07-30T01:21:53;94372.47;;;22.25;66.14
9774;BME280;4926;42.670;23.316;2023-07-30T01:24:21;94379.31;;;22.19;66.13
9774;BME280;4926;42.670;23.316;2023-07-30T01:26:53;94367.44;;;22.27;65.81
9774;BME280;4926;42.670;23.316;2023-07-30T01:29:27;94368.38;;;22.38;65.76
9774;BME280;4926;42.670;23.316;2023-07-30T01:31:56;94375.81;;;22.45;65.43
9774;BME280;4926;42.670;23.316;2023-07-30T01:34:26;94373.44;;;22.40;65.30
9774;BME280;4926;42.670;23.316;2023-07-30T01:36:56;94378.97;;;22.47;65.02
9774;BME280;4926;42.670;23.316;2023-07-30T01:39:24;94378.31;;;22.53;64.79
9774;BME280;4926;42.670;23.316;2023-07-30T01:41:53;94375.31;;;22.58;64.61
9774;BME280;4926;42.670;23.316;2023-07-30T01:44:20;94379.16;;;22.57;64.59
9774;BME280;4926;42.670;23.316;2023-07-30T01:46:46;94374.31;;;22.47;64.62
9774;BME280;4926;42.670;23.316;2023-07-30T01:49:13;94373.47;;;22.43;64.60
9774;BME280;4926;42.670;23.316;2023-07-30T01:51:40;94369.63;;;22.44;64.81
9774;BME280;4926;42.670;23.316;2023-07-30T01:54:08;94373.97;;;22.49;64.71
9774;BME280;4926;42.670;23.316;2023-07-30T01:56:34;94379.88;;;22.54;64.56
9774;BME280;4926;42.670;23.316;2023-07-30T01:59:02;94381.03;;;22.53;64.92
9774;BME280;4926;42.670;23.316;2023-07-30T02:01:31;94382.88;;;22.49;65.14
9774;BME280;4926;42.670;23.316;2023-07-30T02:03:57;94387.00;;;22.40;65.71
9774;BME280;4926;42.670;23.316;2023-07-30T02:06:26;94380.72;;;22.09;66.90
9774;BME280;4926;42.670;23.316;2023-07-30T02:08:53;94393.97;;;22.14;67.22
9774;BME280;4926;42.670;23.316;2023-07-30T02:11:21;94385.06;;;22.14;67.20
9774;BME280;4926;42.670;23.316;2023-07-30T02:13:48;94388.50;;;22.11;67.16
9774;BME280;4926;42.670;23.316;2023-07-30T02:16:15;94385.38;;;22.09;66.91
9774;BME280;4926;42.670;23.316;2023-07-30T02:18:41;94384.56;;;22.08;66.88
9774;BME280;4926;42.670;23.316;2023-07-30T02:21:09;94383.78;;;22.08;66.51
9774;BME280;4926;42.670;23.316;2023-07-30T02:23:36;94396.31;;;22.16;65.76
9774;BME280;4926;42.670;23.316;2023-07-30T02:26:03;94388.50;;;22.11;65.58
9774;BME280;4926;42.670;23.316;2023-07-30T02:28:31;94390.06;;;22.12;65.38
9774;BME280;4926;42.670;23.316;2023-07-30T02:30:58;94386.91;;;22.10;65.32
9774;BME280;4926;42.670;23.316;2023-07-30T02:33:24;94396.25;;;22.12;65.26
9774;BME280;4926;42.670;23.316;2023-07-30T02:35:53;94394.94;;;22.03;65.02
9774;BME280;4926;42.670;23.316;2023-07-30T02:38:20;94395.31;;;22.01;65.24
9774;BME280;4926;42.670;23.316;2023-07-30T02:40:47;94400.78;;;22.05;65.28
9774;BME280;4926;42.670;23.316;2023-07-30T02:43:13;94400.78;;;22.05;65.02
9774;BME280;4926;42.670;23.316;2023-07-30T02:45:41;94403.91;;;22.07;65.00
9774;BME280;4926;42.670;23.316;2023-07-30T02:48:10;94401.94;;;22.04;65.29
9774;BME280;4926;42.670;23.316;2023-07-30T02:50:37;94397.81;;;22.13;65.03
9774;BME280;4926;42.670;23.316;2023-07-30T02:53:05;94400.59;;;22.17;65.00
9774;BME280;4926;42.670;23.316;2023-07-30T02:55:37;94401.69;;;22.12;64.96
9774;BME280;4926;42.670;23.316;2023-07-30T02:58:04;94401.69;;;22.12;65.13
9774;BME280;4926;42.670;23.316;2023-07-30T03:00:31;94401.25;;;22.10;65.44
9774;BME280;4926;42.670;23.316;2023-07-30T03:02:59;94410.13;;;22.07;65.42
9774;BME280;4926;42.670;23.316;2023-07-30T03:05:26;94404.59;;;22.00;65.92
9774;BME280;4926;42.670;23.316;2023-07-30T03:07:53;94408.50;;;22.03;65.93
9774;BME280;4926;42.670;23.316;2023-07-30T03:10:22;94419.22;;;21.96;66.08
9774;BME280;4926;42.670;23.316;2023-07-30T03:12:49;94410.31;;;21.95;66.19
9774;BME280;4926;42.670;23.316;2023-07-30T03:15:19;94413.09;;;21.99;66.53
9774;BME280;4926;42.670;23.316;2023-07-30T03:17:45;94408.38;;;21.96;66.89
9774;BME280;4926;42.670;23.316;2023-07-30T03:20:13;94411.38;;;21.91;66.93
9774;BME280;4926;42.670;23.316;2023-07-30T03:22:40;94410.72;;;21.97;66.81
9774;BME280;4926;42.670;23.316;2023-07-30T03:25:10;94404.53;;;21.97;67.00
9774;BME280;4926;42.670;23.316;2023-07-30T03:27:37;94410.72;;;21.97;67.02
9774;BME280;4926;42.670;23.316;2023-07-30T03:30:06;94403.56;;;21.86;67.64
9774;BME280;4926;42.670;23.316;2023-07-30T03:32:34;94404.69;;;21.66;69.42
9774;BME280;4926;42.670;23.316;2023-07-30T03:35:10;94418.53;;;21.61;70.28
9774;BME280;4926;42.670;23.316;2023-07-30T03:37:38;94420.09;;;21.39;71.46
9774;BME280;4926;42.670;23.316;2023-07-30T03:40:06;94416.44;;;21.13;73.40
9774;BME280;4926;42.670;23.316;2023-07-30T03:42:33;94416.59;;;21.00;73.83
9774;BME280;4926;42.670;23.316;2023-07-30T03:45:00;94418.84;;;20.98;74.44
9774;BME280;4926;42.670;23.316;2023-07-30T03:47:26;94418.59;;;20.88;74.49
9774;BME280;4926;42.670;23.316;2023-07-30T03:49:53;94416.47;;;20.97;73.78
9774;BME280;4926;42.670;23.316;2023-07-30T03:52:20;94430.81;;;20.97;73.57
9774;BME280;4926;42.670;23.316;2023-07-30T03:54:48;94426.09;;;20.94;74.35
9774;BME280;4926;42.670;23.316;2023-07-30T03:57:15;94432.19;;;21.07;74.46
9774;BME280;4926;42.670;23.316;2023-07-30T03:59:41;94433.78;;;21.08;74.91
9774;BME280;4926;42.670;23.316;2023-07-30T04:02:09;94436.47;;;21.08;75.21
9774;BME280;4926;42.670;23.316;2023-07-30T04:04:40;94446.94;;;21.10;75.62
9774;BME280;4926;42.670;23.316;2023-07-30T04:07:07;94427.72;;;21.15;75.35
9774;BME280;4926;42.670;23.316;2023-07-30T04:09:34;94435.31;;;21.28;76.05
9774;BME280;4926;42.670;23.316;2023-07-30T04:12:02;94433.41;;;21.48;75.43
9774;BME280;4926;42.670;23.316;2023-07-30T04:14:29;94437.25;;;21.47;73.15
9774;BME280;4926;42.670;23.316;2023-07-30T04:16:56;94436.75;;;21.41;73.48
9774;BME280;4926;42.670;23.316;2023-07-30T04:19:22;94439.81;;;21.59;72.55
9774;BME280;4926;42.670;23.316;2023-07-30T04:21:49;94434.41;;;21.78;71.94
9774;BME280;4926;42.670;23.316;2023-07-30T04:24:16;94440.19;;;21.99;70.85
9774;BME280;4926;42.670;23.316;2023-07-30T04:26:42;94431.94;;;22.14;69.85
9774;BME280;4926;42.670;23.316;2023-07-30T04:29:11;94426.69;;;22.25;69.21
9774;BME280;4926;42.670;23.316;2023-07-30T04:31:41;94438.59;;;22.43;68.53
9774;BME280;4926;42.670;23.316;2023-07-30T04:34:10;94430.38;;;22.62;67.75
9774;BME280;4926;42.670;23.316;2023-07-30T04:36:37;94434.31;;;22.65;67.24
9774;BME280;4926;42.670;23.316;2023-07-30T04:39:04;94430.50;;;22.69;66.94
9774;BME280;4926;42.670;23.316;2023-07-30T04:41:30;94433.84;;;22.85;66.30
9774;BME280;4926;42.670;23.316;2023-07-30T04:43:57;94444.38;;;22.90;65.84
9774;BME280;4926;42.670;23.316;2023-07-30T04:46:25;94444.75;;;22.89;65.73
9774;BME280;4926;42.670;23.316;2023-07-30T04:48:52;94439.38;;;22.92;65.88
9774;BME280;4926;42.670;23.316;2023-07-30T04:51:19;94432.09;;;23.00;65.58
9774;BME280;4926;42.670;23.316;2023-07-30T04:53:45;94442.69;;;23.08;65.03
9774;BME280;4926;42.670;23.316;2023-07-30T04:56:15;94430.19;;;23.00;65.28
9774;BME280;4926;42.670;23.316;2023-07-30T04:58:42;94438.09;;;23.12;64.92
9774;BME280;4926;42.670;23.316;2023-07-30T05:01:10;94449.38;;;23.14;64.75
9774;BME280;4926;42.670;23.316;2023-07-30T05:03:38;94436.63;;;23.18;64.39
9774;BME280;4926;42.670;23.316;2023-07-30T05:06:05;94439.91;;;23.31;63.95
9774;BME280;4926;42.670;23.316;2023-07-30T05:08:32;94435.03;;;23.44;63.43
9774;BME280;4926;42.670;23.316;2023-07-30T05:10:59;94430.09;;;23.53;63.16
9774;BME280;4926;42.670;23.316;2023-07-30T05:13:28;94428.84;;;23.47;62.85
9774;BME280;4926;42.670;23.316;2023-07-30T05:15:54;94436.69;;;23.25;63.47
9774;BME280;4926;42.670;23.316;2023-07-30T05:18:21;94432.94;;;23.30;63.92
9774;BME280;4926;42.670;23.316;2023-07-30T05:20:49;94443.09;;;23.37;63.98
9774;BME280;4926;42.670;23.316;2023-07-30T05:23:21;94433.09;;;23.44;63.79
9774;BME280;4926;42.670;23.316;2023-07-30T05:25:47;94431.59;;;23.50;63.38
9774;BME280;4926;42.670;23.316;2023-07-30T05:28:14;94431.59;;;23.50;63.29
9774;BME280;4926;42.670;23.316;2023-07-30T05:30:41;94423.06;;;23.52;63.06
9774;BME280;4926;42.670;23.316;2023-07-30T05:33:12;94430.16;;;23.60;62.56
9774;BME280;4926;42.670;23.316;2023-07-30T05:35:39;94427.91;;;23.69;62.42
9774;BME280;4926;42.670;23.316;2023-07-30T05:38:07;94437.72;;;23.77;61.75
9774;BME280;4926;42.670;23.316;2023-07-30T05:40:34;94431.94;;;23.82;61.10
9774;BME280;4926;42.670;23.316;2023-07-30T05:43:01;94432.16;;;23.99;60.55
9774;BME280;4926;42.670;23.316;2023-07-30T05:45:29;94440.19;;;23.89;60.79
9774;BME280;4926;42.670;23.316;2023-07-30T05:47:56;94437.50;;;23.92;60.21
9774;BME280;4926;42.670;23.316;2023-07-30T05:50:22;94427.91;;;23.69;59.69
9774;BME280;4926;42.670;23.316;2023-07-30T05:52:49;94436.66;;;23.52;60.17
9774;BME280;4926;42.670;23.316;2023-07-30T05:55:17;94439.22;;;23.38;60.92
9774;BME280;4926;42.670;23.316;2023-07-30T05:57:44;94443.41;;;23.32;61.30
9774;BME280;4926;42.670;23.316;2023-07-30T06:00:11;94443.00;;;23.30;60.68
9774;BME280;4926;42.670;23.316;2023-07-30T06:02:38;94450.81;;;23.35;60.89
9774;BME280;4926;42.670;23.316;2023-07-30T06:05:05;94445.72;;;23.30;61.33
9774;BME280;4926;42.670;23.316;2023-07-30T06:07:31;94449.44;;;23.21;61.01
9774;BME280;4926;42.670;23.316;2023-07-30T06:09:58;94451.66;;;23.39;61.16
9774;BME280;4926;42.670;23.316;2023-07-30T06:12:26;94442.06;;;23.48;60.45
9774;BME280;4926;42.670;23.316;2023-07-30T06:14:53;94440.59;;;23.54;60.52
9774;BME280;4926;42.670;23.316;2023-07-30T06:17:20;94446.91;;;23.62;60.49
9774;BME280;4926;42.670;23.316;2023-07-30T06:19:46;94447.25;;;23.60;59.65
9774;BME280;4926;42.670;23.316;2023-07-30T06:22:16;94437.66;;;23.70;59.81
9774;BME280;4926;42.670;23.316;2023-07-30T06:24:43;94437.31;;;23.75;59.88
9774;BME280;4926;42.670;23.316;2023-07-30T06:27:10;94435.84;;;23.81;59.73
9774;BME280;4926;42.670;23.316;2023-07-30T06:29:42;94442.97;;;23.96;58.65
9774;BME280;4926;42.670;23.316;2023-07-30T06:32:11;94436.88;;;24.06;57.80
9774;BME280;4926;42.670;23.316;2023-07-30T06:34:40;94441.66;;;24.19;58.10
9774;BME280;4926;42.670;23.316;2023-07-30T06:37:07;94440.56;;;24.24;57.35
9774;BME280;4926;42.670;23.316;2023-07-30T06:39:34;94428.16;;;24.30;57.75
9774;BME280;4926;42.670;23.316;2023-07-30T06:42:00;94424.66;;;24.29;57.06
9774;BME280;4926;42.670;23.316;2023-07-30T06:44:32;94425.16;;;24.42;56.68
9774;BME280;4926;42.670;23.316;2023-07-30T06:47:00;94415.41;;;24.41;57.26
9774;BME280;4926;42.670;23.316;2023-07-30T06:49:27;94414.78;;;24.58;56.88
9774;BME280;4926;42.670;23.316;2023-07-30T06:51:54;94407.22;;;24.88;55.94
9774;BME280;4926;42.670;23.316;2023-07-30T06:54:20;94414.72;;;25.05;55.50
9774;BME280;4926;42.670;23.316;2023-07-30T06:56:47;94401.50;;;25.11;55.43
9774;BME280;4926;42.670;23.316;2023-07-30T06:59:14;94393.00;;;25.26;55.10
9774;BME280;4926;42.670;23.316;2023-07-30T07:01:43;94393.94;;;25.52;54.62
9774;BME280;4926;42.670;23.316;2023-07-30T07:06:56;94388.94;;;25.85;53.82
9774;BME280;4926;42.670;23.316;2023-07-30T07:09:22;94387.44;;;26.05;53.31
9774;BME280;4926;42.670;23.316;2023-07-30T07:11:49;94379.66;;;26.11;52.39
9774;BME280;4926;42.670;23.316;2023-07-30T07:14:18;94376.53;;;26.23;52.45
9774;BME280;4926;42.670;23.316;2023-07-30T07:16:45;94375.00;;;26.43;51.02
9774;BME280;4926;42.670;23.316;2023-07-30T07:19:15;94369.50;;;26.57;50.64
9774;BME280;4926;42.670;23.316;2023-07-30T07:21:42;94356.25;;;26.59;51.23
9774;BME280;4926;42.670;23.316;2023-07-30T07:24:11;94357.00;;;26.67;49.90
9774;BME280;4926;42.670;23.316;2023-07-30T07:26:39;94358.91;;;26.98;50.39
9774;BME280;4926;42.670;23.316;2023-07-30T07:29:06;94361.66;;;26.87;49.09
9774;BME280;4926;42.670;23.316;2023-07-30T07:31:33;94353.78;;;27.14;48.92
9774;BME280;4926;42.670;23.316;2023-07-30T07:34:00;94345.41;;;27.60;48.21
9774;BME280;4926;42.670;23.316;2023-07-30T07:36:28;94346.41;;;27.87;46.68
9774;BME280;4926;42.670;23.316;2023-07-30T07:38:55;94339.31;;;28.00;46.61
9774;BME280;4926;42.670;23.316;2023-07-30T07:41:24;94333.44;;;28.45;46.07
9774;BME280;4926;42.670;23.316;2023-07-30T07:43:53;94330.13;;;28.68;44.92
9774;BME280;4926;42.670;23.316;2023-07-30T07:46:20;94326.16;;;28.76;44.92
9774;BME280;4926;42.670;23.316;2023-07-30T07:48:47;94330.75;;;28.86;44.90
9774;BME280;4926;42.670;23.316;2023-07-30T07:51:13;94322.50;;;29.23;44.55
9774;BME280;4926;42.670;23.316;2023-07-30T07:53:43;94310.34;;;29.54;43.10
9774;BME280;4926;42.670;23.316;2023-07-30T07:56:12;94312.09;;;29.72;42.87
9774;BME280;4926;42.670;23.316;2023-07-30T07:58:41;94313.00;;;29.88;43.05
9774;BME280;4926;42.670;23.316;2023-07-30T08:01:08;94304.75;;;30.15;41.99
9774;BME280;4926;42.670;23.316;2023-07-30T08:03:38;94313.19;;;30.27;42.39
9774;BME280;4926;42.670;23.316;2023-07-30T08:06:05;94299.47;;;30.50;41.23
9774;BME280;4926;42.670;23.316;2023-07-30T08:08:35;94290.66;;;30.82;41.18
9774;BME280;4926;42.670;23.316;2023-07-30T08:11:08;94285.19;;;31.02;40.45
9774;BME280;4926;42.670;23.316;2023-07-30T08:13:36;94281.56;;;31.24;40.16
9774;BME280;4926;42.670;23.316;2023-07-30T08:16:05;94271.31;;;31.25;39.61
9774;BME280;4926;42.670;23.316;2023-07-30T08:18:32;94275.28;;;30.85;39.86
9774;BME280;4926;42.670;23.316;2023-07-30T08:20:59;94282.91;;;30.54;40.75
9774;BME280;4926;42.670;23.316;2023-07-30T08:23:26;94279.41;;;30.73;40.67
9774;BME280;4926;42.670;23.316;2023-07-30T08:25:53;94282.38;;;31.05;39.93
9774;BME280;4926;42.670;23.316;2023-07-30T08:28:21;94268.06;;;31.49;38.94
9774;BME280;4926;42.670;23.316;2023-07-30T08:30:47;94264.25;;;31.63;39.00
9774;BME280;4926;42.670;23.316;2023-07-30T08:33:17;94259.81;;;31.49;39.47
9774;BME280;4926;42.670;23.316;2023-07-30T08:35:44;94270.34;;;31.70;38.92
9774;BME280;4926;42.670;23.316;2023-07-30T08:38:10;94256.53;;;31.38;38.99
9774;BME280;4926;42.670;23.316;2023-07-30T08:40:40;94251.03;;;31.38;38.40
9774;BME280;4926;42.670;23.316;2023-07-30T08:43:07;94246.84;;;31.30;38.55
9774;BME280;4926;42.670;23.316;2023-07-30T08:45:37;94254.84;;;31.60;38.91
9774;BME280;4926;42.670;23.316;2023-07-30T08:48:04;94254.81;;;31.44;39.63
9774;BME280;4926;42.670;23.316;2023-07-30T08:50:31;94247.28;;;31.48;39.40
9774;BME280;4926;42.670;23.316;2023-07-30T08:52:59;94247.19;;;31.88;38.85
9774;BME280;4926;42.670;23.316;2023-07-30T08:55:28;94240.59;;;32.30;37.99
9774;BME280;4926;42.670;23.316;2023-07-30T08:57:55;94243.56;;;32.07;38.75
9774;BME280;4926;42.670;23.316;2023-07-30T09:00:25;94243.38;;;32.46;37.54
9774;BME280;4926;42.670;23.316;2023-07-30T09:02:55;94233.91;;;32.47;37.66
9774;BME280;4926;42.670;23.316;2023-07-30T09:05:28;94218.38;;;32.53;36.54
9774;BME280;4926;42.670;23.316;2023-07-30T09:07:55;94226.94;;;32.71;36.62
9774;BME280;4926;42.670;23.316;2023-07-30T09:10:23;94235.25;;;32.55;36.79
9774;BME280;4926;42.670;23.316;2023-07-30T09:12:53;94218.25;;;32.72;36.36
9774;BME280;4926;42.670;23.316;2023-07-30T09:15:29;94208.53;;;33.09;36.07
9774;BME280;4926;42.670;23.316;2023-07-30T09:17:58;94211.22;;;33.25;35.70
9774;BME280;4926;42.670;23.316;2023-07-30T09:20:24;94206.06;;;33.52;34.92
9774;BME280;4926;42.670;23.316;2023-07-30T09:22:52;94204.75;;;33.44;34.80
9774;BME280;4926;42.670;23.316;2023-07-30T09:25:22;94199.03;;;33.64;34.60
9774;BME280;4926;42.670;23.316;2023-07-30T09:27:50;94191.38;;;33.80;34.29
9774;BME280;4926;42.670;23.316;2023-07-30T09:30:22;94189.06;;;33.66;33.01
9774;BME280;4926;42.670;23.316;2023-07-30T09:32:53;94171.28;;;33.80;31.80
9774;BME280;4926;42.670;23.316;2023-07-30T09:35:28;94180.88;;;33.63;32.22
9774;BME280;4926;42.670;23.316;2023-07-30T09:37:58;94177.91;;;34.29;32.32
9774;BME280;4926;42.670;23.316;2023-07-30T09:40:34;94162.81;;;34.77;31.88
9774;BME280;4926;42.670;23.316;2023-07-30T09:43:02;94155.44;;;34.96;31.49
9774;BME280;4926;42.670;23.316;2023-07-30T09:45:33;94167.63;;;34.30;31.98
9774;BME280;4926;42.670;23.316;2023-07-30T09:48:04;94159.41;;;34.05;32.68
9774;BME280;4926;42.670;23.316;2023-07-30T09:50:33;94165.03;;;34.14;33.21
9774;BME280;4926;42.670;23.316;2023-07-30T09:53:01;94146.50;;;34.36;32.05
9774;BME280;4926;42.670;23.316;2023-07-30T09:55:28;94140.75;;;34.43;31.17
9774;BME280;4926;42.670;23.316;2023-07-30T09:57:55;94153.72;;;34.21;31.73
9774;BME280;4926;42.670;23.316;2023-07-30T10:00:23;94151.56;;;34.71;30.79
9774;BME280;4926;42.670;23.316;2023-07-30T10:02:52;94149.91;;;34.96;30.56
9774;BME280;4926;42.670;23.316;2023-07-30T10:05:25;94132.31;;;35.11;30.08
9774;BME280;4926;42.670;23.316;2023-07-30T10:07:59;94130.97;;;35.46;30.03
9774;BME280;4926;42.670;23.316;2023-07-30T10:10:28;94132.25;;;35.63;29.55
9774;BME280;4926;42.670;23.316;2023-07-30T10:13:05;94117.22;;;35.82;29.59
9774;BME280;4926;42.670;23.316;2023-07-30T10:15:37;94117.91;;;35.56;29.38
9774;BME280;4926;42.670;23.316;2023-07-30T10:18:07;94116.38;;;35.55;30.43
9774;BME280;4926;42.670;23.316;2023-07-30T10:20:34;94111.97;;;35.05;30.54
9774;BME280;4926;42.670;23.316;2023-07-30T10:23:04;94108.78;;;34.85;31.09
9774;BME280;4926;42.670;23.316;2023-07-30T10:25:42;94108.94;;;35.12;30.87
9774;BME280;4926;42.670;23.316;2023-07-30T10:28:26;94106.97;;;35.52;30.74
9774;BME280;4926;42.670;23.316;2023-07-30T10:30:55;94094.94;;;35.95;30.29
9774;BME280;4926;42.670;23.316;2023-07-30T10:33:44;94086.50;;;36.44;29.26
9774;BME280;4926;42.670;23.316;2023-07-30T10:36:11;94080.09;;;36.97;28.43
9774;BME280;4926;42.670;23.316;2023-07-30T10:38:40;94079.50;;;36.75;28.90
9774;BME280;4926;42.670;23.316;2023-07-30T10:41:10;94082.16;;;36.52;29.24
9774;BME280;4926;42.670;23.316;2023-07-30T10:43:39;94064.22;;;36.80;28.21
9774;BME280;4926;42.670;23.316;2023-07-30T10:46:07;94066.69;;;36.78;28.59
9774;BME280;4926;42.670;23.316;2023-07-30T10:48:36;94056.59;;;37.08;28.34
9774;BME280;4926;42.670;23.316;2023-07-30T10:51:05;94057.78;;;37.57;28.10
9774;BME280;4926;42.670;23.316;2023-07-30T10:53:32;94048.97;;;37.35;27.84
9774;BME280;4926;42.670;23.316;2023-07-30T10:56:00;94049.19;;;36.45;28.08
9774;BME280;4926;42.670;23.316;2023-07-30T10:58:29;94043.00;;;36.68;28.39
9774;BME280;4926;42.670;23.316;2023-07-30T11:01:01;94036.66;;;36.76;28.70
9774;BME280;4926;42.670;23.316;2023-07-30T11:03:29;94037.47;;;36.59;28.75
9774;BME280;4926;42.670;23.316;2023-07-30T11:05:57;94046.44;;;36.36;28.65
9774;BME280;4926;42.670;23.316;2023-07-30T11:08:35;94037.81;;;35.98;28.54
9774;BME280;4926;42.670;23.316;2023-07-30T11:11:05;94031.66;;;36.12;29.35
9774;BME280;4926;42.670;23.316;2023-07-30T11:13:35;94024.97;;;35.73;28.78
9774;BME280;4926;42.670;23.316;2023-07-30T11:16:03;94025.03;;;35.91;28.82
9774;BME280;4926;42.670;23.316;2023-07-30T11:18:34;94021.50;;;36.09;28.73
9774;BME280;4926;42.670;23.316;2023-07-30T11:21:04;94009.50;;;35.94;29.10
9774;BME280;4926;42.670;23.316;2023-07-30T11:23:32;94014.66;;;35.64;29.04
9774;BME280;4926;42.670;23.316;2023-07-30T11:26:01;94020.84;;;35.68;29.50
9774;BME280;4926;42.670;23.316;2023-07-30T11:28:33;94011.47;;;36.20;28.70
9774;BME280;4926;42.670;23.316;2023-07-30T11:31:06;93988.47;;;36.56;27.45
9774;BME280;4926;42.670;23.316;2023-07-30T11:33:34;94000.50;;;35.62;28.79
9774;BME280;4926;42.670;23.316;2023-07-30T11:36:02;93995.56;;;35.48;29.80
9774;BME280;4926;42.670;23.316;2023-07-30T11:38:29;94001.13;;;35.66;29.02
9774;BME280;4926;42.670;23.316;2023-07-30T11:40:57;93994.38;;;36.04;28.97
9774;BME280;4926;42.670;23.316;2023-07-30T11:43:24;93977.88;;;36.45;28.08
9774;BME280;4926;42.670;23.316;2023-07-30T11:46:09;93969.88;;;36.89;27.99
9774;BME280;4926;42.670;23.316;2023-07-30T11:48:36;93970.19;;;36.91;27.54
9774;BME280;4926;42.670;23.316;2023-07-30T11:51:03;93962.78;;;37.21;27.22
9774;BME280;4926;42.670;23.316;2023-07-30T11:53:48;93957.78;;;37.01;27.46
9774;BME280;4926;42.670;23.316;2023-07-30T11:56:23;93957.72;;;36.77;27.63
9774;BME280;4926;42.670;23.316;2023-07-30T11:58:54;93960.59;;;36.92;27.73
9774;BME280;4926;42.670;23.316;2023-07-30T12:01:23;93956.97;;;37.10;27.75
9774;BME280;4926;42.670;23.316;2023-07-30T12:03:53;93957.47;;;37.55;27.33
9774;BME280;4926;42.670;23.316;2023-07-30T12:06:20;93936.28;;;37.81;26.27
9774;BME280;4926;42.670;23.316;2023-07-30T12:08:48;93934.53;;;36.99;27.10
9774;BME280;4926;42.670;23.316;2023-07-30T12:11:17;93933.50;;;36.78;27.39
9774;BME280;4926;42.670;23.316;2023-07-30T12:13:44;93934.53;;;37.22;27.27
9774;BME280;4926;42.670;23.316;2023-07-30T12:16:12;93923.09;;;37.29;27.31
9774;BME280;4926;42.670;23.316;2023-07-30T12:18:41;93916.09;;;37.57;26.98
9774;BME280;4926;42.670;23.316;2023-07-30T12:21:09;93905.75;;;37.58;26.31
9774;BME280;4926;42.670;23.316;2023-07-30T12:23:38;93895.69;;;38.13;26.49
9774;BME280;4926;42.670;23.316;2023-07-30T12:26:05;93895.88;;;38.68;26.60
9774;BME280;4926;42.670;23.316;2023-07-30T12:28:32;93884.09;;;38.93;25.85
9774;BME280;4926;42.670;23.316;2023-07-30T12:31:01;93882.13;;;39.34;25.06
9774;BME280;4926;42.670;23.316;2023-07-30T12:33:31;93889.25;;;39.35;25.31
9774;BME280;4926;42.670;23.316;2023-07-30T12:35:59;93882.81;;;37.86;25.90
9774;BME280;4926;42.670;23.316;2023-07-30T12:38:27;93888.69;;;37.50;26.53
9774;BME280;4926;42.670;23.316;2023-07-30T12:40:55;93881.00;;;36.65;27.40
9774;BME280;4926;42.670;23.316;2023-07-30T12:43:22;93889.72;;;36.49;27.86
9774;BME280;4926;42.670;23.316;2023-07-30T12:45:49;93884.69;;;36.39;27.88
9774;BME280;4926;42.670;23.316;2023-07-30T12:48:20;93876.34;;;36.39;27.78
9774;BME280;4926;42.670;23.316;2023-07-30T12:50:47;93872.66;;;36.24;27.98
9774;BME280;4926;42.670;23.316;2023-07-30T12:53:15;93869.31;;;36.61;27.54
9774;BME280;4926;42.670;23.316;2023-07-30T12:55:44;93868.41;;;37.12;27.52
9774;BME280;4926;42.670;23.316;2023-07-30T12:58:11;93860.31;;;37.46;27.26
9774;BME280;4926;42.670;23.316;2023-07-30T13:00:37;93857.00;;;37.71;26.51
9774;BME280;4926;42.670;23.316;2023-07-30T13:03:04;93854.09;;;37.89;26.55
9774;BME280;4926;42.670;23.316;2023-07-30T13:05:31;93854.88;;;37.52;26.51
9774;BME280;4926;42.670;23.316;2023-07-30T13:07:58;93850.81;;;37.15;26.85
9774;BME280;4926;42.670;23.316;2023-07-30T13:10:29;93850.59;;;37.04;27.21
9774;BME280;4926;42.670;23.316;2023-07-30T13:12:56;93858.16;;;37.03;27.45
9774;BME280;4926;42.670;23.316;2023-07-30T13:15:22;93858.75;;;37.07;27.99
9774;BME280;4926;42.670;23.316;2023-07-30T13:17:49;93867.25;;;36.71;28.78